Hovedside
METAR-TAF:

METAR-TAF

Lufthavner :

Kolkata internasjonale lufthavn

Kolkata, India

breddegrad: 22-39N, lengdegrad: 088-27E, høyde over havet: 4 m

Gjeldene værobservasjon

Denne rapporten ble laget for 30 minutter siden, klokken 22:30 UTC
Flau vind
Temperatur 22°C
Luftfuktighet 88%
Trykk 1011 hPa
Sikt: 1800 m
dis

METAR: VECC 142230Z 00000KT 1800 BR NSC 22/20 Q1011 NOSIG

Tid: 04:30 (23:00 UTC)

Varsel

Denne rapporten ble laget for 3 timer og 0 minutter siden, klokken 20:00 UTC
Varsel gyldig fra 14. klokken 21 UTC til 15. klokken 06 UTC
Vind 5 kt fra Sør
Sikt: 2200 m
dis
Blir
fra 14. klokken 22 UTC til 14. klokken 24 UTC
Vind kt fra Nord
Sikt: 1400 m
dis
Blir
fra 15. klokken 03 UTC til 15. klokken 05 UTC
Vind 5 kt fra Sør-sørvest
Sikt: 2800 m
dis

TAF: VECC 142000Z 1421/1506 18005KT 2200 HZ NSC BECMG 1422/1424 00000KT 1400 BR BECMG 1503/1505 20005KT 2800 HZ

Værobservasjoner og værvarsel for over 4000 flyplasser (METAR- og TAF-rapporter).

Tilgjengelige stasjoner er representert av de røde og gule prikkene på kartet.

Hold musepekeren over prikken for å se navnet på stasjonen.

Klikk så for å se værobservasjoner og -varsler.

For å forandre kartet kan du klikke på den grønne knappen med svart kryss for å zoome inn, på den grønne knappen med strek for å zoome ut, eller på de grønne pilene for å se tilstøtende kart.


METAR-TAF: